createdAt,value
2019-06-07T00:01:21.344Z,21.94
2019-06-07T00:02:57.951Z,21.93
2019-06-07T00:04:33.503Z,21.94
2019-06-07T00:06:14.546Z,21.93
2019-06-07T00:07:47.404Z,21.91
2019-06-07T00:09:23.745Z,21.89
2019-06-07T00:10:59.295Z,21.87
2019-06-07T00:12:35.648Z,21.85
2019-06-07T00:14:14.673Z,21.84
2019-06-07T00:15:49.259Z,21.80
2019-06-07T00:17:24.817Z,21.80
2019-06-07T00:19:01.207Z,21.78
2019-06-07T00:20:36.789Z,21.78
2019-06-07T00:22:18.306Z,21.77
2019-06-07T00:23:50.380Z,21.76
2019-06-07T00:25:26.720Z,21.75
2019-06-07T00:28:37.462Z,21.77
2019-06-07T00:30:44.628Z,21.77
2019-06-07T00:31:53.271Z,21.77
2019-06-07T00:33:29.028Z,21.76
2019-06-07T00:35:09.126Z,21.77
2019-06-07T00:36:44.972Z,21.77
2019-06-07T00:38:21.935Z,21.76
2019-06-07T00:40:13.534Z,21.76
2019-06-07T00:41:35.768Z,21.74
2019-06-07T00:43:16.363Z,21.76
2019-06-07T00:44:49.373Z,21.77
2019-06-07T00:46:25.399Z,21.76
2019-06-07T00:49:41.085Z,21.73
2019-06-07T00:54:28.419Z,21.77
2019-06-07T00:56:04.043Z,21.77
2019-06-07T00:57:40.635Z,21.76
2019-06-07T00:59:19.149Z,21.77
2019-06-07T01:00:54.488Z,21.76
2019-06-07T01:02:31.662Z,21.75
2019-06-07T01:05:43.799Z,21.71
2019-06-07T01:07:21.923Z,21.69
2019-06-07T01:08:58.612Z,21.67
2019-06-07T01:10:52.320Z,21.64
2019-06-07T01:12:14.125Z,21.63
2019-06-07T01:13:50.306Z,21.60
2019-06-07T01:15:29.268Z,21.59
2019-06-07T01:17:27.747Z,21.58
2019-06-07T01:18:52.857Z,21.56
2019-06-07T01:20:28.413Z,21.52
2019-06-07T01:22:05.148Z,21.52
2019-06-07T01:25:23.875Z,21.53
2019-06-07T01:26:58.081Z,21.52
2019-06-07T01:28:34.421Z,21.51
2019-06-07T01:30:12.258Z,21.50
2019-06-07T01:31:48.591Z,21.49
2019-06-07T01:33:39.650Z,21.48
2019-06-07T01:35:02.213Z,21.47
2019-06-07T01:36:37.771Z,21.45
2019-06-07T01:38:14.354Z,21.47
2019-06-07T01:39:50.246Z,21.47
2019-06-07T01:41:28.385Z,21.48
2019-06-07T01:43:03.840Z,21.48
2019-06-07T01:44:40.182Z,21.48
2019-06-07T01:46:15.852Z,21.47
2019-06-07T01:47:53.169Z,21.45
2019-06-07T01:49:29.739Z,21.42
2019-06-07T01:51:07.626Z,21.41
2019-06-07T01:52:43.261Z,21.38
2019-06-07T01:54:52.229Z,21.35
2019-06-07T01:55:57.188Z,21.34
2019-06-07T01:57:45.655Z,21.31
2019-06-07T01:59:11.097Z,21.28
2019-06-07T02:00:48.308Z,21.27
2019-06-07T02:02:28.068Z,21.26
2019-06-07T02:04:02.051Z,21.25
2019-06-07T02:05:38.345Z,21.22
2019-06-07T02:07:14.717Z,21.22
2019-06-07T02:08:50.257Z,21.20
2019-06-07T02:10:30.296Z,21.18
2019-06-07T02:12:23.065Z,21.18
2019-06-07T02:13:42.542Z,21.15
2019-06-07T02:15:21.694Z,21.14
2019-06-07T02:16:56.541Z,21.12
2019-06-07T02:18:34.373Z,21.09
2019-06-07T02:20:10.980Z,21.07
2019-06-07T02:21:47.041Z,21.06
2019-06-07T02:23:27.542Z,21.04
2019-06-07T02:26:38.744Z,21.00
2019-06-07T02:28:38.487Z,21.01
2019-06-07T02:29:52.351Z,20.99
2019-06-07T02:31:36.257Z,20.99
2019-06-07T02:33:06.073Z,21.00
2019-06-07T02:34:41.586Z,21.01
2019-06-07T02:36:18.336Z,21.00
2019-06-07T02:37:53.892Z,20.99
2019-06-07T02:39:34.494Z,20.98
2019-06-07T02:41:07.822Z,20.98
2019-06-07T02:42:44.416Z,20.96
2019-06-07T02:44:19.955Z,20.94
2019-06-07T02:45:56.295Z,20.92
2019-06-07T02:47:35.943Z,20.93
2019-06-07T02:49:09.905Z,20.91
2019-06-07T02:50:45.641Z,20.88
2019-06-07T02:52:27.356Z,20.87
2019-06-07T02:53:59.508Z,20.86
2019-06-07T02:56:26.364Z,20.84
2019-06-07T02:57:13.114Z,20.82
2019-06-07T02:58:49.447Z,20.81
2019-06-07T03:01:05.492Z,20.78
2019-06-07T03:02:26.547Z,20.76
2019-06-07T03:04:02.041Z,20.68
2019-06-07T03:05:45.336Z,20.64
2019-06-07T03:07:22.089Z,20.61
2019-06-07T03:08:58.794Z,20.59
2019-06-07T03:10:37.819Z,20.56
2019-06-07T03:12:14.822Z,20.54
2019-06-07T03:13:51.339Z,20.51
2019-06-07T03:15:44.644Z,20.50
2019-06-07T03:17:34.881Z,20.47
2019-06-07T03:19:10.412Z,20.46
2019-06-07T03:21:04.562Z,20.38
2019-06-07T03:22:26.817Z,20.36
2019-06-07T03:24:03.433Z,20.36
2019-06-07T03:25:40.524Z,20.35
2019-06-07T03:27:43.213Z,20.33
2019-06-07T03:28:56.858Z,20.32
2019-06-07T03:30:48.033Z,20.30
2019-06-07T03:32:10.763Z,20.29
2019-06-07T03:33:47.088Z,20.27
2019-06-07T03:35:22.635Z,20.26
2019-06-07T03:36:58.979Z,20.25
2019-06-07T03:38:35.352Z,20.24
2019-06-07T03:40:13.214Z,20.22
2019-06-07T03:42:05.098Z,20.20
2019-06-07T03:43:27.422Z,20.19
2019-06-07T03:45:03.517Z,20.20
2019-06-07T03:46:41.416Z,20.20
2019-06-07T03:48:17.117Z,20.21
2019-06-07T03:49:53.777Z,20.24
2019-06-07T03:51:30.616Z,20.27
2019-06-07T03:53:07.384Z,20.29
2019-06-07T03:54:43.024Z,20.31
2019-06-07T03:56:19.730Z,20.35
2019-06-07T03:59:37.416Z,20.45
2019-06-07T04:01:10.813Z,20.50
2019-06-07T04:02:47.435Z,20.56
2019-06-07T04:04:22.959Z,20.61
2019-06-07T04:05:59.301Z,20.67
2019-06-07T04:07:38.779Z,20.74
2019-06-07T04:09:12.997Z,20.80
2019-06-07T04:10:59.667Z,20.85
2019-06-07T04:12:28.561Z,20.91
2019-06-07T04:14:04.396Z,20.93
2019-06-07T04:15:41.470Z,20.97
2019-06-07T04:17:18.139Z,21.01
2019-06-07T04:18:54.490Z,21.03
2019-06-07T04:20:32.594Z,21.05
2019-06-07T04:22:08.084Z,21.06
2019-06-07T04:23:45.689Z,21.08
2019-06-07T04:25:21.952Z,21.09
2019-06-07T04:26:58.773Z,21.10
2019-06-07T04:29:25.573Z,21.12
2019-06-07T04:30:13.303Z,21.15
2019-06-07T04:31:49.640Z,21.17
2019-06-07T04:33:25.473Z,21.19
2019-06-07T04:35:01.811Z,21.21
2019-06-07T04:36:52.753Z,21.23
2019-06-07T04:38:16.518Z,21.25
2019-06-07T04:39:53.821Z,21.26
2019-06-07T04:41:33.437Z,21.28
2019-06-07T04:43:10.811Z,21.30
2019-06-07T04:44:49.692Z,21.31
2019-06-07T04:46:25.389Z,21.35
2019-06-07T04:48:04.131Z,21.37
2019-06-07T04:49:43.466Z,21.39
2019-06-07T04:51:19.238Z,21.41
2019-06-07T04:52:54.924Z,21.41
2019-06-07T04:54:32.946Z,21.45
2019-06-07T04:56:08.523Z,21.47
2019-06-07T04:57:45.011Z,21.51
2019-06-07T05:00:00.784Z,21.53
2019-06-07T05:01:03.739Z,21.56
2019-06-07T05:02:42.745Z,21.59
2019-06-07T05:04:17.120Z,21.62
2019-06-07T05:05:52.738Z,21.68
2019-06-07T05:07:30.971Z,21.77
2019-06-07T05:09:07.670Z,21.84
2019-06-07T05:10:44.223Z,21.93
2019-06-07T05:12:20.224Z,22.03
2019-06-07T05:13:59.336Z,22.13
2019-06-07T05:15:37.171Z,22.26
2019-06-07T05:17:12.962Z,22.39
2019-06-07T05:18:48.535Z,22.53
2019-06-07T05:20:24.875Z,22.67
2019-06-07T05:22:04.906Z,22.80
2019-06-07T05:25:17.227Z,23.10
2019-06-07T05:26:53.644Z,23.26
2019-06-07T05:28:29.977Z,23.43
2019-06-07T05:30:36.560Z,23.58
2019-06-07T05:31:49.596Z,23.72
2019-06-07T05:33:26.399Z,23.88
2019-06-07T05:35:02.824Z,24.03
2019-06-07T05:36:42.503Z,24.19
2019-06-07T05:38:16.914Z,24.33
2019-06-07T05:39:53.305Z,24.47
2019-06-07T05:41:29.808Z,24.63
2019-06-07T05:43:07.571Z,24.76
2019-06-07T05:44:45.453Z,24.89
2019-06-07T05:46:21.179Z,25.02
2019-06-07T05:47:56.734Z,25.15
2019-06-07T05:49:35.562Z,25.26
2019-06-07T05:51:10.733Z,25.39
2019-06-07T05:52:47.675Z,25.49
2019-06-07T05:54:23.720Z,25.60
2019-06-07T05:56:00.070Z,25.70
2019-06-07T05:57:37.651Z,25.81
2019-06-07T05:59:14.980Z,25.91
2019-06-07T06:00:51.066Z,26.03
2019-06-07T06:02:27.631Z,26.14
2019-06-07T06:04:03.992Z,26.28
2019-06-07T06:05:45.851Z,26.43
2019-06-07T06:07:17.599Z,26.58
2019-06-07T06:09:12.810Z,26.73
2019-06-07T06:10:34.224Z,26.88
2019-06-07T06:12:10.565Z,27.01
2019-06-07T06:14:06.120Z,27.17
2019-06-07T06:15:41.539Z,27.30
2019-06-07T06:17:01.609Z,27.43
2019-06-07T06:18:38.132Z,27.55
2019-06-07T06:20:14.271Z,27.68
2019-06-07T06:21:50.630Z,27.82
2019-06-07T06:23:26.204Z,27.95
2019-06-07T06:25:30.806Z,28.09
2019-06-07T06:26:47.664Z,28.20
2019-06-07T06:28:18.241Z,28.30
2019-06-07T06:29:53.793Z,28.46
2019-06-07T06:31:30.216Z,28.60
2019-06-07T06:33:06.808Z,28.73
2019-06-07T06:34:46.957Z,28.86
2019-06-07T06:36:21.421Z,29.00
2019-06-07T06:37:59.455Z,29.15
2019-06-07T06:39:35.595Z,29.30
2019-06-07T06:41:16.243Z,29.49
2019-06-07T06:42:50.630Z,29.65
2019-06-07T06:44:27.273Z,29.84
2019-06-07T06:46:02.857Z,30.03
2019-06-07T06:47:40.686Z,30.15
2019-06-07T06:49:16.386Z,30.22
2019-06-07T06:50:52.883Z,30.22
2019-06-07T06:52:29.473Z,30.22
2019-06-07T06:54:05.859Z,30.25
2019-06-07T06:55:41.700Z,30.30
2019-06-07T06:57:20.187Z,30.35
2019-06-07T07:00:56.953Z,30.44
2019-06-07T07:02:26.334Z,30.49
2019-06-07T07:04:11.991Z,30.55
2019-06-07T07:05:41.489Z,30.64
2019-06-07T07:07:18.505Z,30.76
2019-06-07T07:08:55.275Z,30.85
2019-06-07T07:10:46.153Z,30.95
2019-06-07T07:12:23.760Z,31.07
2019-06-07T07:13:59.662Z,31.17
2019-06-07T07:15:36.001Z,31.23
2019-06-07T07:17:12.553Z,31.25
2019-06-07T07:18:51.616Z,31.21
2019-06-07T07:20:26.420Z,31.16
2019-06-07T07:22:02.768Z,31.08
2019-06-07T07:23:38.310Z,30.94
2019-06-07T07:25:14.844Z,30.81
2019-06-07T07:26:53.879Z,30.65
2019-06-07T07:28:29.050Z,30.50
2019-06-07T07:31:50.306Z,30.26
2019-06-07T07:33:23.833Z,30.14
2019-06-07T07:35:00.851Z,30.04
2019-06-07T07:36:40.048Z,29.94
2019-06-07T07:38:16.516Z,29.82
2019-06-07T07:40:00.889Z,29.71
2019-06-07T07:41:30.122Z,29.61
2019-06-07T07:43:06.494Z,29.49
2019-06-07T07:44:43.256Z,29.40
2019-06-07T07:46:29.250Z,29.27
2019-06-07T07:48:13.770Z,29.14
2019-06-07T07:49:35.601Z,29.02
2019-06-07T07:51:11.974Z,28.89
2019-06-07T07:52:49.118Z,28.77
2019-06-07T07:54:25.708Z,28.66
2019-06-07T07:56:01.430Z,28.51
2019-06-07T07:57:37.873Z,28.41
2019-06-07T07:59:13.418Z,28.27
2019-06-07T08:00:54.884Z,28.15
2019-06-07T08:02:28.646Z,28.03
2019-06-07T08:04:05.021Z,27.90
2019-06-07T08:05:43.329Z,27.80
2019-06-07T08:07:18.888Z,27.71
2019-06-07T08:08:56.964Z,27.63
2019-06-07T08:10:32.882Z,27.57
2019-06-07T08:12:08.401Z,27.51
2019-06-07T08:13:45.686Z,27.50
2019-06-07T08:15:21.484Z,27.50
2019-06-07T08:16:59.270Z,27.54
2019-06-07T08:18:34.912Z,27.60
2019-06-07T08:20:11.825Z,27.67
2019-06-07T08:21:49.109Z,27.77
2019-06-07T08:23:26.741Z,27.85
2019-06-07T08:25:04.456Z,27.93
2019-06-07T08:26:41.849Z,28.00
2019-06-07T08:28:18.372Z,28.10
2019-06-07T08:30:18.488Z,28.18
2019-06-07T08:31:32.977Z,28.25
2019-06-07T08:33:25.512Z,28.33
2019-06-07T08:34:49.067Z,28.44
2019-06-07T08:36:40.787Z,28.50
2019-06-07T08:39:40.501Z,28.62
2019-06-07T08:41:16.440Z,28.65
2019-06-07T08:43:10.873Z,28.72
2019-06-07T08:44:30.462Z,28.79
2019-06-07T08:46:08.007Z,28.85
2019-06-07T08:47:44.979Z,28.90
2019-06-07T08:49:21.301Z,28.95
2019-06-07T08:51:06.561Z,29.00
2019-06-07T08:52:37.975Z,29.07
2019-06-07T08:54:22.533Z,29.13
2019-06-07T08:55:58.318Z,29.18
2019-06-07T08:57:28.867Z,29.23
2019-06-07T08:59:11.133Z,29.26
2019-06-07T09:00:46.527Z,29.31
2019-06-07T09:02:23.826Z,29.37
2019-06-07T09:04:05.778Z,29.44
2019-06-07T09:05:36.390Z,29.50
2019-06-07T09:07:19.580Z,29.63
2019-06-07T09:08:51.937Z,29.79
2019-06-07T09:10:30.064Z,29.93
2019-06-07T09:12:10.811Z,30.00
2019-06-07T09:13:43.975Z,30.05
2019-06-07T09:15:23.850Z,30.06
2019-06-07T09:17:02.576Z,30.12
2019-06-07T09:18:43.151Z,30.16
2019-06-07T09:20:35.889Z,30.20
2019-06-07T09:21:54.604Z,30.22
2019-06-07T09:23:31.359Z,30.24
2019-06-07T09:25:20.647Z,30.28
2019-06-07T09:26:48.740Z,30.30
2019-06-07T09:28:25.901Z,30.30
2019-06-07T09:30:07.651Z,30.30
2019-06-07T09:31:51.967Z,30.28
2019-06-07T09:33:16.873Z,30.27
2019-06-07T09:34:53.202Z,30.31
2019-06-07T09:36:28.758Z,30.43
2019-06-07T09:38:18.029Z,30.54
2019-06-07T09:39:43.177Z,30.62
2019-06-07T09:41:19.514Z,30.77
2019-06-07T09:43:48.187Z,30.95
2019-06-07T09:44:33.562Z,31.11
2019-06-07T09:46:12.822Z,31.18
2019-06-07T09:47:47.350Z,31.18
2019-06-07T09:49:31.886Z,31.16
2019-06-07T09:51:09.723Z,31.07
2019-06-07T09:52:57.223Z,30.96
2019-06-07T09:55:02.611Z,30.89
2019-06-07T09:55:54.666Z,30.81
2019-06-07T09:57:31.040Z,30.74
2019-06-07T09:59:11.760Z,30.68
2019-06-07T10:00:44.701Z,30.63
2019-06-07T10:02:20.314Z,30.59
2019-06-07T10:04:02.378Z,30.60
2019-06-07T10:05:34.248Z,30.61
2019-06-07T10:07:28.614Z,30.54
2019-06-07T10:12:04.570Z,30.31
2019-06-07T10:13:41.399Z,30.26
2019-06-07T10:15:17.903Z,30.20
2019-06-07T10:16:54.235Z,30.12
2019-06-07T10:18:29.805Z,30.05
2019-06-07T10:20:08.066Z,29.98
2019-06-07T10:21:43.625Z,29.90
2019-06-07T10:23:19.994Z,29.81
2019-06-07T10:24:55.717Z,29.71
2019-06-07T10:26:32.377Z,29.65
2019-06-07T10:28:08.442Z,29.65
2019-06-07T10:29:45.731Z,29.72
2019-06-07T10:31:21.312Z,29.79
2019-06-07T10:32:57.637Z,29.89
2019-06-07T10:34:33.240Z,29.98
2019-06-07T10:36:10.729Z,30.11
2019-06-07T10:37:46.435Z,30.25
2019-06-07T10:39:23.044Z,30.45
2019-06-07T10:40:58.608Z,30.72
2019-06-07T10:42:34.959Z,30.86
2019-06-07T10:44:11.451Z,30.93
2019-06-07T10:45:47.936Z,31.02
2019-06-07T10:47:23.496Z,31.08
2019-06-07T10:49:00.091Z,31.08
2019-06-07T10:50:35.681Z,31.02
2019-06-07T10:52:13.330Z,30.93
2019-06-07T10:53:48.981Z,30.79
2019-06-07T10:55:25.653Z,30.64
2019-06-07T10:57:02.841Z,30.52
2019-06-07T10:58:39.263Z,30.41
2019-06-07T11:00:17.529Z,30.27
2019-06-07T11:01:54.106Z,30.18
2019-06-07T11:03:29.677Z,30.07
2019-06-07T11:05:12.147Z,29.95
2019-06-07T11:06:46.341Z,29.85
2019-06-07T11:08:24.798Z,29.74
2019-06-07T11:10:07.548Z,29.63
2019-06-07T11:11:38.498Z,29.53
2019-06-07T11:13:14.494Z,29.48
2019-06-07T11:14:51.025Z,29.49
2019-06-07T11:16:26.597Z,29.52
2019-06-07T11:18:03.021Z,29.54
2019-06-07T11:19:38.665Z,29.52
2019-06-07T11:21:16.280Z,29.56
2019-06-07T11:22:52.079Z,29.60
2019-06-07T11:24:28.408Z,29.69
2019-06-07T11:26:03.982Z,29.80
2019-06-07T11:27:40.330Z,29.85
2019-06-07T11:29:15.984Z,29.91
2019-06-07T11:30:52.415Z,29.89
2019-06-07T11:32:28.121Z,29.84
2019-06-07T11:34:04.471Z,29.78
2019-06-07T11:35:40.018Z,29.70
2019-06-07T11:37:16.425Z,29.63
2019-06-07T11:38:53.048Z,29.60
2019-06-07T11:40:35.326Z,29.57
2019-06-07T11:42:07.934Z,29.57
2019-06-07T11:43:44.799Z,29.58
2019-06-07T11:45:23.753Z,29.63
2019-06-07T11:46:59.036Z,29.69
2019-06-07T11:48:34.612Z,29.70
2019-06-07T11:50:11.910Z,29.75
2019-06-07T11:51:47.480Z,29.83
2019-06-07T11:53:23.826Z,29.93
2019-06-07T11:54:59.718Z,30.06
2019-06-07T11:56:36.376Z,30.16
2019-06-07T11:58:16.452Z,30.31
2019-06-07T11:59:49.952Z,30.50
2019-06-07T12:01:25.526Z,30.74
2019-06-07T12:03:02.201Z,30.95
2019-06-07T12:04:38.036Z,31.09
2019-06-07T12:06:15.979Z,31.20
2019-06-07T12:07:56.984Z,31.30
2019-06-07T12:09:31.925Z,31.47
2019-06-07T12:11:08.076Z,31.60
2019-06-07T12:12:44.737Z,31.69
2019-06-07T12:14:20.285Z,31.73
2019-06-07T12:15:56.905Z,31.75
2019-06-07T12:17:32.444Z,31.79
2019-06-07T12:19:09.718Z,31.86
2019-06-07T12:20:45.402Z,31.95
2019-06-07T12:22:21.730Z,32.08
2019-06-07T12:23:57.450Z,32.19
2019-06-07T12:25:33.850Z,32.22
2019-06-07T12:27:10.321Z,32.17
2019-06-07T12:28:47.983Z,32.11
2019-06-07T12:30:28.077Z,32.10
2019-06-07T12:32:04.764Z,32.12
2019-06-07T12:33:40.290Z,32.18
2019-06-07T12:35:19.824Z,32.27
2019-06-07T12:36:55.586Z,32.41
2019-06-07T12:38:31.900Z,32.56
2019-06-07T12:40:09.939Z,32.71
2019-06-07T12:41:46.307Z,32.84
2019-06-07T12:43:23.211Z,32.92
2019-06-07T12:44:59.785Z,32.97
2019-06-07T12:46:35.668Z,32.95
2019-06-07T12:48:16.301Z,32.98
2019-06-07T12:49:49.580Z,33.03
2019-06-07T12:51:26.053Z,32.98
2019-06-07T12:53:01.854Z,32.95
2019-06-07T12:54:38.188Z,32.91
2019-06-07T12:56:13.770Z,32.92
2019-06-07T12:57:50.080Z,32.92
2019-06-07T12:59:26.704Z,32.91
2019-06-07T13:01:03.056Z,32.84
2019-06-07T13:02:38.691Z,32.85
2019-06-07T13:04:16.262Z,32.85
2019-06-07T13:05:52.001Z,32.87
2019-06-07T13:07:28.355Z,32.94
2019-06-07T13:09:04.510Z,33.05
2019-06-07T13:10:40.815Z,33.07
2019-06-07T13:12:17.543Z,33.07
2019-06-07T13:13:53.970Z,33.11
2019-06-07T13:15:29.525Z,33.13
2019-06-07T13:17:05.863Z,33.12
2019-06-07T13:18:41.586Z,33.14
2019-06-07T13:20:20.435Z,33.11
2019-06-07T13:21:56.061Z,33.12
2019-06-07T13:23:32.394Z,33.14
2019-06-07T13:25:09.366Z,33.13
2019-06-07T13:26:45.724Z,33.14
2019-06-07T13:28:22.661Z,33.16
2019-06-07T13:29:59.475Z,33.17
2019-06-07T13:31:35.012Z,33.19
2019-06-07T13:33:11.339Z,33.21
2019-06-07T13:34:46.890Z,33.23
2019-06-07T13:36:24.373Z,33.21
2019-06-07T13:38:00.467Z,33.22
2019-06-07T13:39:36.812Z,33.22
2019-06-07T13:41:12.378Z,33.27
2019-06-07T13:42:48.866Z,33.39
2019-06-07T13:44:25.383Z,33.47
2019-06-07T13:46:01.725Z,33.55
2019-06-07T13:47:37.353Z,33.54
2019-06-07T13:49:13.693Z,33.53
2019-06-07T13:50:49.235Z,33.47
2019-06-07T13:52:25.568Z,33.44
2019-06-07T13:54:02.461Z,33.42
2019-06-07T13:55:38.788Z,33.39
2019-06-07T13:57:14.338Z,33.34
2019-06-07T13:58:50.667Z,33.24
2019-06-07T14:00:26.779Z,33.15
2019-06-07T14:02:03.308Z,33.10
2019-06-07T14:03:38.847Z,33.03
2019-06-07T14:05:15.517Z,32.93
2019-06-07T14:06:51.054Z,32.87
2019-06-07T14:08:27.766Z,32.79
2019-06-07T14:10:06.689Z,32.59
2019-06-07T14:11:50.620Z,32.48
2019-06-07T14:13:21.463Z,32.30
2019-06-07T14:14:57.945Z,32.16
2019-06-07T14:16:33.498Z,32.00
2019-06-07T14:18:09.827Z,31.83
2019-06-07T14:19:45.432Z,31.67
2019-06-07T14:21:22.540Z,31.54
2019-06-07T14:22:59.503Z,31.38
2019-06-07T14:24:35.890Z,31.22
2019-06-07T14:26:11.448Z,31.06
2019-06-07T14:27:47.807Z,30.90
2019-06-07T14:29:23.632Z,30.79
2019-06-07T14:31:00.040Z,30.68
2019-06-07T14:32:35.638Z,30.59
2019-06-07T14:34:11.973Z,30.50
2019-06-07T14:35:47.510Z,30.42
2019-06-07T14:37:24.851Z,30.32
2019-06-07T14:39:01.894Z,30.25
2019-06-07T14:40:39.986Z,30.15
2019-06-07T14:42:15.523Z,30.05
2019-06-07T14:43:51.924Z,29.94
2019-06-07T14:45:27.749Z,29.87
2019-06-07T14:47:04.116Z,29.82
2019-06-07T14:48:39.666Z,29.77
2019-06-07T14:50:16.690Z,29.70
2019-06-07T14:51:52.565Z,29.62
2019-06-07T14:53:28.898Z,29.59
2019-06-07T14:55:06.142Z,29.56
2019-06-07T14:56:42.545Z,29.54
2019-06-07T14:58:18.070Z,29.52
2019-06-07T14:59:57.314Z,29.50
2019-06-07T15:01:33.506Z,29.46
2019-06-07T15:03:11.755Z,29.45
2019-06-07T15:04:48.114Z,29.43
2019-06-07T15:06:24.518Z,29.42
2019-06-07T15:08:00.064Z,29.42
2019-06-07T15:09:36.718Z,29.41
2019-06-07T15:11:12.289Z,29.43
2019-06-07T15:12:48.628Z,29.44
2019-06-07T15:14:24.452Z,29.43
2019-06-07T15:16:00.761Z,29.44
2019-06-07T15:17:36.341Z,29.42
2019-06-07T15:19:12.913Z,29.40
2019-06-07T15:20:48.471Z,29.38
2019-06-07T15:22:25.028Z,29.38
2019-06-07T15:24:00.636Z,29.38
2019-06-07T15:25:36.917Z,29.40
2019-06-07T15:27:12.461Z,29.39
2019-06-07T15:28:48.820Z,29.36
2019-06-07T15:30:25.381Z,29.33
2019-06-07T15:32:01.708Z,29.32
2019-06-07T15:33:38.544Z,29.30
2019-06-07T15:35:16.081Z,29.32
2019-06-07T15:36:51.705Z,29.34
2019-06-07T15:38:28.876Z,29.37
2019-06-07T15:40:05.975Z,29.37
2019-06-07T15:41:42.383Z,29.36
2019-06-07T15:43:19.547Z,29.36
2019-06-07T15:44:56.148Z,29.36
2019-06-07T15:46:33.601Z,29.37
2019-06-07T15:48:11.113Z,29.38
2019-06-07T15:49:46.644Z,29.42
2019-06-07T15:51:22.961Z,29.42
2019-06-07T15:52:58.499Z,29.45
2019-06-07T15:54:34.873Z,29.46
2019-06-07T15:56:10.544Z,29.48
2019-06-07T15:57:46.876Z,29.49
2019-06-07T15:59:22.420Z,29.50
2019-06-07T16:00:58.771Z,29.52
2019-06-07T16:02:35.669Z,29.56
2019-06-07T16:04:12.028Z,29.57
2019-06-07T16:05:47.561Z,29.58
2019-06-07T16:07:24.145Z,29.60
2019-06-07T16:08:59.938Z,29.60
2019-06-07T16:10:36.834Z,29.60
2019-06-07T16:12:12.631Z,29.59
2019-06-07T16:13:48.947Z,29.58
2019-06-07T16:15:24.660Z,29.55
2019-06-07T16:17:00.956Z,29.52
2019-06-07T16:18:37.642Z,29.49
2019-06-07T16:20:14.353Z,29.47
2019-06-07T16:21:50.152Z,29.45
2019-06-07T16:23:26.476Z,29.41
2019-06-07T16:25:02.154Z,29.38
2019-06-07T16:26:38.583Z,29.33
2019-06-07T16:28:14.112Z,29.29
2019-06-07T16:29:50.440Z,29.26
2019-06-07T16:31:26.000Z,29.22
2019-06-07T16:33:02.599Z,29.18
2019-06-07T16:34:39.889Z,29.14
2019-06-07T16:36:16.636Z,29.12
2019-06-07T16:37:52.668Z,29.10
2019-06-07T16:39:29.190Z,29.06
2019-06-07T16:41:05.275Z,29.03
2019-06-07T16:42:42.905Z,28.99
2019-06-07T16:44:18.717Z,28.97
2019-06-07T16:45:55.042Z,28.95
2019-06-07T16:47:30.593Z,28.93
2019-06-07T16:49:07.026Z,28.90
2019-06-07T16:50:42.993Z,28.88
2019-06-07T16:52:19.465Z,28.85
2019-06-07T16:53:55.005Z,28.83
2019-06-07T16:55:31.349Z,28.81
2019-06-07T16:57:06.934Z,28.81
2019-06-07T16:58:44.400Z,28.79
2019-06-07T17:00:20.772Z,28.78
2019-06-07T17:01:57.110Z,28.77
2019-06-07T17:03:33.752Z,28.78
2019-06-07T17:05:11.290Z,28.76
2019-06-07T17:06:48.188Z,28.75
2019-06-07T17:08:24.767Z,28.76
2019-06-07T17:10:00.615Z,28.73
2019-06-07T17:11:38.224Z,28.74
2019-06-07T17:13:13.753Z,28.73
2019-06-07T17:14:50.102Z,28.70
2019-06-07T17:16:25.626Z,28.67
2019-06-07T17:18:02.048Z,28.66
2019-06-07T17:19:38.987Z,28.66
2019-06-07T17:21:20.052Z,28.66
2019-06-07T17:22:56.376Z,28.65
2019-06-07T17:24:31.919Z,28.62
2019-06-07T17:26:08.330Z,28.63
2019-06-07T17:27:44.029Z,28.61
2019-06-07T17:29:20.363Z,28.60
2019-06-07T17:30:57.927Z,28.58
2019-06-07T17:32:47.653Z,28.54
2019-06-07T17:34:11.759Z,28.54
2019-06-07T17:35:48.545Z,28.55
2019-06-07T17:37:24.475Z,28.57
2019-06-07T17:39:00.822Z,28.54
2019-06-07T17:40:38.141Z,28.50
2019-06-07T17:42:14.806Z,28.47
2019-06-07T17:43:58.535Z,28.45
2019-06-07T17:45:29.640Z,28.44
2019-06-07T17:47:05.161Z,28.41
2019-06-07T17:48:43.508Z,28.41
2019-06-07T17:50:20.636Z,28.39
2019-06-07T17:51:57.016Z,28.35
2019-06-07T17:53:32.602Z,28.35
2019-06-07T17:55:13.268Z,28.33
2019-06-07T17:56:50.512Z,28.32
2019-06-07T17:58:27.897Z,28.30
2019-06-07T18:00:27.617Z,28.29
2019-06-07T18:02:02.365Z,28.30
2019-06-07T18:03:22.812Z,28.29
2019-06-07T18:04:58.362Z,28.29
2019-06-07T18:06:41.086Z,28.27
2019-06-07T18:08:17.523Z,28.26
2019-06-07T18:09:56.146Z,28.22
2019-06-07T18:11:32.191Z,28.22
2019-06-07T18:13:09.551Z,28.19
2019-06-07T18:14:45.787Z,28.17
2019-06-07T18:16:22.809Z,28.16
2019-06-07T18:17:58.353Z,28.14
2019-06-07T18:19:35.980Z,28.15
2019-06-07T18:21:11.575Z,28.13
2019-06-07T18:22:49.030Z,28.10
2019-06-07T18:24:24.594Z,28.08
2019-06-07T18:26:00.982Z,28.08
2019-06-07T18:27:36.526Z,28.06
2019-06-07T18:29:12.850Z,28.05
2019-06-07T18:30:48.630Z,28.01
2019-06-07T18:32:25.095Z,27.98
2019-06-07T18:34:00.929Z,27.96
2019-06-07T18:35:37.435Z,27.94
2019-06-07T18:37:12.982Z,27.92
2019-06-07T18:38:49.311Z,27.89
2019-06-07T18:40:24.823Z,27.86
2019-06-07T18:42:01.147Z,27.84
2019-06-07T18:43:36.687Z,27.82
2019-06-07T18:45:13.514Z,27.79
2019-06-07T18:46:50.127Z,27.79
2019-06-07T18:48:26.451Z,27.74
2019-06-07T18:50:02.269Z,27.72
2019-06-07T18:51:38.951Z,27.68
2019-06-07T18:53:14.577Z,27.66
2019-06-07T18:54:53.147Z,27.65
2019-06-07T18:56:28.669Z,27.63
2019-06-07T18:58:05.301Z,27.62
2019-06-07T18:59:40.922Z,27.59
2019-06-07T19:01:17.250Z,27.54
2019-06-07T19:02:53.972Z,27.52
2019-06-07T19:04:30.431Z,27.52
2019-06-07T19:06:05.982Z,27.48
2019-06-07T19:07:42.307Z,27.46
2019-06-07T19:09:17.874Z,27.41
2019-06-07T19:10:54.820Z,27.37
2019-06-07T19:12:30.804Z,27.35
2019-06-07T19:14:07.133Z,27.34
2019-06-07T19:15:43.493Z,27.30
2019-06-07T19:17:19.907Z,27.29
2019-06-07T19:18:55.923Z,27.27
2019-06-07T19:20:32.297Z,27.26
2019-06-07T19:22:07.934Z,27.23
2019-06-07T19:23:44.262Z,27.21
2019-06-07T19:25:20.913Z,27.21
2019-06-07T19:26:58.639Z,27.17
2019-06-07T19:28:34.277Z,27.13
2019-06-07T19:30:12.663Z,27.11
2019-06-07T19:31:48.591Z,27.07
2019-06-07T19:33:24.892Z,27.05
2019-06-07T19:35:01.539Z,27.05
2019-06-07T19:36:48.277Z,27.05
2019-06-07T19:38:17.067Z,27.05
2019-06-07T19:39:53.845Z,27.05
2019-06-07T19:41:29.353Z,27.06
2019-06-07T19:43:05.871Z,27.05
2019-06-07T19:44:53.085Z,27.05
2019-06-07T19:46:21.446Z,27.03
2019-06-07T19:47:57.132Z,27.02
2019-06-07T19:49:34.722Z,27.00
2019-06-07T19:51:10.264Z,26.98
2019-06-07T19:52:46.599Z,26.96
2019-06-07T19:54:23.130Z,26.94
2019-06-07T19:55:59.455Z,26.91
2019-06-07T19:57:43.278Z,26.89
2019-06-07T19:59:19.599Z,26.83
2019-06-07T20:00:55.543Z,26.79
2019-06-07T20:02:31.974Z,26.76
2019-06-07T20:04:07.541Z,26.72
2019-06-07T20:05:43.879Z,26.68
2019-06-07T20:07:19.401Z,26.64
2019-06-07T20:08:56.518Z,26.63
2019-06-07T20:10:32.296Z,26.60
2019-06-07T20:12:08.619Z,26.56
2019-06-07T20:13:44.181Z,26.53
2019-06-07T20:15:29.142Z,26.49
2019-06-07T20:16:59.524Z,26.47
2019-06-07T20:18:35.947Z,26.42
2019-06-07T20:20:12.213Z,26.40
2019-06-07T20:21:48.553Z,26.37
2019-06-07T20:23:24.392Z,26.34
2019-06-07T20:25:00.870Z,26.29
2019-06-07T20:26:39.426Z,26.25
2019-06-07T20:28:15.771Z,26.22
2019-06-07T20:29:51.309Z,26.20
2019-06-07T20:31:28.536Z,26.18
2019-06-07T20:33:04.115Z,26.14
2019-06-07T20:34:44.477Z,26.11
2019-06-07T20:36:17.643Z,26.08
2019-06-07T20:37:54.740Z,26.06
2019-06-07T20:39:30.295Z,26.02
2019-06-07T20:41:07.467Z,25.99
2019-06-07T20:42:43.078Z,25.97
2019-06-07T20:44:19.411Z,25.92
2019-06-07T20:45:54.942Z,25.91
2019-06-07T20:47:31.278Z,25.90
2019-06-07T20:49:06.809Z,25.89
2019-06-07T20:50:43.133Z,25.88
2019-06-07T20:52:18.693Z,25.86
2019-06-07T20:53:55.038Z,25.85
2019-06-07T20:55:30.836Z,25.82
2019-06-07T20:57:07.155Z,25.81
2019-06-07T20:58:42.713Z,25.80
2019-06-07T21:00:21.927Z,25.79
2019-06-07T21:01:58.717Z,25.77
2019-06-07T21:03:36.035Z,25.73
2019-06-07T21:05:12.145Z,25.67
2019-06-07T21:06:48.479Z,25.65
2019-06-07T21:08:24.994Z,25.64
2019-06-07T21:10:01.800Z,25.61